createdAt,value
2019-01-31T00:00:17.637Z,13.80
2019-01-31T00:05:44.462Z,13.97
2019-01-31T00:11:05.701Z,15.13
2019-01-31T00:16:58.786Z,14.10
2019-01-31T00:22:41.769Z,14.13
2019-01-31T00:28:03.397Z,15.60
2019-01-31T00:33:27.086Z,16.20
2019-01-31T00:39:03.366Z,15.33
2019-01-31T00:44:55.441Z,16.50
2019-01-31T00:50:17.904Z,15.50
2019-01-31T00:55:49.516Z,15.27
2019-01-31T01:01:23.277Z,14.50
2019-01-31T01:07:14.958Z,14.27
2019-01-31T01:13:00.771Z,14.80
2019-01-31T01:18:32.990Z,14.40
2019-01-31T01:23:54.033Z,14.03
2019-01-31T01:30:01.925Z,14.07
2019-01-31T01:35:38.886Z,13.93
2019-01-31T01:41:35.389Z,13.57
2019-01-31T01:47:17.348Z,13.43
2019-01-31T01:53:04.229Z,13.32
2019-01-31T01:59:01.525Z,14.47
2019-01-31T02:04:41.654Z,14.87
2019-01-31T02:10:42.692Z,14.53
2019-01-31T02:16:29.439Z,15.57
2019-01-31T02:21:59.454Z,16.43
2019-01-31T02:27:22.726Z,17.77
2019-01-31T02:32:51.838Z,17.92
2019-01-31T02:38:48.492Z,17.00
2019-01-31T02:44:34.372Z,19.23
2019-01-31T02:50:03.990Z,18.77
2019-01-31T02:55:26.525Z,19.63
2019-01-31T03:00:59.195Z,21.73
2019-01-31T03:07:21.924Z,20.83
2019-01-31T03:12:39.599Z,19.77
2019-01-31T03:18:08.687Z,21.37
2019-01-31T03:23:44.036Z,20.27
2019-01-31T03:29:22.409Z,20.30
2019-01-31T03:35:04.427Z,21.00
2019-01-31T03:40:46.405Z,20.90
2019-01-31T03:46:26.898Z,22.60
2019-01-31T03:52:21.129Z,21.27
2019-01-31T03:57:47.128Z,22.40
2019-01-31T04:03:06.173Z,23.50
2019-01-31T04:08:17.190Z,20.72
2019-01-31T04:13:31.311Z,23.18
2019-01-31T04:18:44.332Z,22.60
2019-01-31T04:23:55.237Z,23.63
2019-01-31T04:29:02.868Z,21.50
2019-01-31T04:34:14.984Z,20.43
2019-01-31T04:39:26.763Z,20.77
2019-01-31T04:44:38.505Z,19.10
2019-01-31T04:49:49.628Z,19.48
2019-01-31T04:54:55.787Z,20.50
2019-01-31T05:00:05.420Z,20.87
2019-01-31T05:05:16.807Z,20.93
2019-01-31T05:10:26.727Z,22.40
2019-01-31T05:15:34.987Z,20.23
2019-01-31T05:20:44.264Z,21.30
2019-01-31T05:25:53.337Z,23.37
2019-01-31T05:31:27.662Z,20.90
2019-01-31T05:36:54.829Z,22.00
2019-01-31T05:42:05.823Z,22.07
2019-01-31T05:47:15.699Z,24.00
2019-01-31T05:52:23.360Z,25.83
2019-01-31T05:57:33.352Z,24.93
2019-01-31T06:02:46.086Z,27.97
2019-01-31T06:07:58.380Z,29.43
2019-01-31T06:13:09.072Z,28.63
2019-01-31T06:18:18.988Z,27.70
2019-01-31T06:23:27.993Z,29.32
2019-01-31T06:28:43.484Z,28.00
2019-01-31T06:33:58.979Z,28.83
2019-01-31T06:39:12.741Z,30.60
2019-01-31T06:44:23.138Z,34.00
2019-01-31T06:49:35.045Z,32.93
2019-01-31T06:54:42.141Z,32.20
2019-01-31T06:59:53.028Z,33.60
2019-01-31T07:05:07.818Z,36.57
2019-01-31T07:10:28.885Z,38.23
2019-01-31T07:15:38.777Z,36.80
2019-01-31T07:20:47.724Z,36.93
2019-01-31T07:25:57.720Z,37.07
2019-01-31T07:31:10.318Z,34.90
2019-01-31T07:36:22.887Z,34.40
2019-01-31T07:41:41.378Z,34.77
2019-01-31T07:46:49.000Z,37.80
2019-01-31T07:51:58.049Z,34.57
2019-01-31T07:57:10.884Z,35.10
2019-01-31T08:02:27.526Z,34.67
2019-01-31T08:07:36.449Z,35.37
2019-01-31T08:12:48.806Z,33.37
2019-01-31T08:18:00.581Z,35.63
2019-01-31T08:23:08.425Z,31.93
2019-01-31T08:28:19.212Z,34.98
2019-01-31T08:33:30.085Z,35.33
2019-01-31T08:38:36.952Z,36.13
2019-01-31T08:43:46.730Z,39.13
2019-01-31T08:48:59.427Z,34.03
2019-01-31T08:54:12.138Z,35.30
2019-01-31T08:59:24.229Z,33.77
2019-01-31T09:04:43.070Z,34.60
2019-01-31T09:09:54.893Z,32.53
2019-01-31T09:15:06.480Z,34.27
2019-01-31T09:20:20.431Z,30.50
2019-01-31T09:26:05.316Z,32.67
2019-01-31T09:31:48.835Z,30.87
2019-01-31T09:37:24.873Z,28.10
2019-01-31T09:42:56.900Z,27.27
2019-01-31T09:48:35.569Z,29.33
2019-01-31T09:54:03.109Z,31.17
2019-01-31T09:59:24.537Z,31.80
2019-01-31T10:05:00.324Z,28.97
2019-01-31T10:10:24.896Z,29.63
2019-01-31T10:16:13.797Z,29.33
2019-01-31T10:22:27.413Z,26.25
2019-01-31T10:28:23.370Z,26.13
2019-01-31T10:33:44.325Z,23.60
2019-01-31T10:39:21.381Z,23.03
2019-01-31T10:45:06.052Z,26.23
2019-01-31T10:50:31.604Z,28.98
2019-01-31T10:56:29.346Z,27.13
2019-01-31T11:02:41.711Z,27.50
2019-01-31T11:08:33.156Z,26.07
2019-01-31T11:14:20.706Z,28.07
2019-01-31T11:19:45.044Z,28.90
2019-01-31T11:25:21.050Z,27.50
2019-01-31T11:30:49.224Z,27.77
2019-01-31T11:36:23.394Z,29.87
2019-01-31T11:41:54.570Z,31.67
2019-01-31T11:47:30.627Z,29.63
2019-01-31T11:53:23.113Z,31.77
2019-01-31T11:59:02.694Z,29.20
2019-01-31T12:04:12.519Z,28.47
2019-01-31T12:09:22.156Z,35.55
2019-01-31T12:14:35.140Z,30.27
2019-01-31T12:19:44.487Z,28.47
2019-01-31T12:24:51.905Z,31.10
2019-01-31T12:30:00.017Z,28.27
2019-01-31T12:35:07.535Z,28.43
2019-01-31T12:40:17.990Z,28.10
2019-01-31T12:45:25.772Z,29.30
2019-01-31T12:50:35.493Z,25.03
2019-01-31T12:55:44.719Z,26.90
2019-01-31T13:00:55.601Z,26.13
2019-01-31T13:06:07.411Z,26.67
2019-01-31T13:11:18.573Z,26.50
2019-01-31T13:16:28.962Z,27.60
2019-01-31T13:21:41.578Z,26.03
2019-01-31T13:26:53.287Z,26.17
2019-01-31T13:32:04.986Z,23.23
2019-01-31T13:37:17.509Z,25.87
2019-01-31T13:42:28.324Z,23.83
2019-01-31T13:47:38.296Z,25.37
2019-01-31T13:52:48.035Z,24.40
2019-01-31T13:57:57.964Z,21.10
2019-01-31T14:03:03.860Z,20.53
2019-01-31T14:08:12.616Z,20.87
2019-01-31T14:13:25.121Z,22.53
2019-01-31T14:18:39.560Z,21.57
2019-01-31T14:23:51.212Z,22.83
2019-01-31T14:29:03.113Z,22.87
2019-01-31T14:34:12.590Z,21.77
2019-01-31T14:39:23.342Z,22.70
2019-01-31T14:44:36.260Z,21.70
2019-01-31T14:49:48.772Z,21.07
2019-01-31T14:55:00.390Z,20.27
2019-01-31T15:00:14.502Z,20.40
2019-01-31T15:05:23.505Z,21.30
2019-01-31T15:10:33.487Z,21.43
2019-01-31T15:15:44.303Z,20.83
2019-01-31T15:20:56.898Z,22.07
2019-01-31T15:26:08.962Z,21.47
2019-01-31T15:31:16.726Z,20.68
2019-01-31T15:36:23.528Z,19.17
2019-01-31T15:41:32.029Z,21.67
2019-01-31T15:46:43.732Z,19.27
2019-01-31T15:51:51.789Z,21.48
2019-01-31T15:57:00.673Z,22.67
2019-01-31T16:02:09.800Z,21.95
2019-01-31T16:07:20.780Z,25.50
2019-01-31T16:12:35.157Z,22.00
2019-01-31T16:17:47.846Z,23.07
2019-01-31T16:23:00.003Z,23.07
2019-01-31T16:28:08.165Z,23.12
2019-01-31T16:33:18.016Z,23.53
2019-01-31T16:38:27.524Z,25.10
2019-01-31T16:43:37.360Z,24.90
2019-01-31T16:48:47.183Z,27.13
2019-01-31T16:53:57.128Z,26.10
2019-01-31T16:59:08.045Z,29.97
2019-01-31T17:04:20.749Z,31.73
2019-01-31T17:09:33.526Z,36.48
2019-01-31T17:14:44.328Z,29.07
2019-01-31T17:19:58.019Z,24.17
2019-01-31T17:25:11.828Z,24.87
2019-01-31T17:30:23.526Z,22.70
2019-01-31T17:35:31.268Z,23.70
2019-01-31T17:40:43.121Z,26.43
2019-01-31T17:45:56.718Z,22.20
2019-01-31T17:51:04.802Z,20.67
2019-01-31T17:56:15.673Z,20.53
2019-01-31T18:01:25.944Z,20.33
2019-01-31T18:06:39.523Z,26.75
2019-01-31T18:11:51.140Z,21.20
2019-01-31T18:17:03.725Z,22.33
2019-01-31T18:22:11.027Z,22.20
2019-01-31T18:27:20.009Z,22.40
2019-01-31T18:32:29.228Z,25.17
2019-01-31T18:37:40.226Z,21.93
2019-01-31T18:42:51.131Z,22.50
2019-01-31T18:48:03.846Z,24.87
2019-01-31T18:53:13.717Z,25.87
2019-01-31T18:58:21.421Z,24.27
2019-01-31T19:03:32.230Z,25.20
2019-01-31T19:08:45.832Z,28.50
2019-01-31T19:13:56.648Z,32.03
2019-01-31T19:19:11.372Z,29.73
2019-01-31T19:24:20.549Z,31.07
2019-01-31T19:29:31.311Z,30.57
2019-01-31T19:34:47.113Z,27.73
2019-01-31T19:39:57.047Z,25.37
2019-01-31T19:45:05.964Z,31.73
2019-01-31T19:50:13.891Z,28.60
2019-01-31T19:55:23.174Z,29.30
2019-01-31T20:00:30.782Z,30.83
2019-01-31T20:05:40.031Z,33.70
2019-01-31T20:10:53.764Z,29.40
2019-01-31T20:16:02.893Z,30.60
2019-01-31T20:21:14.510Z,31.17
2019-01-31T20:26:25.194Z,33.15
2019-01-31T20:31:35.077Z,36.23
2019-01-31T20:36:44.631Z,33.60
2019-01-31T20:41:54.752Z,33.23
2019-01-31T20:47:07.370Z,32.87
2019-01-31T20:52:19.952Z,33.73
2019-01-31T20:57:32.164Z,31.97
2019-01-31T21:02:44.706Z,29.43
2019-01-31T21:07:56.446Z,29.93
2019-01-31T21:13:06.024Z,32.00
2019-01-31T21:18:18.799Z,30.90
2019-01-31T21:23:32.550Z,28.73
2019-01-31T21:28:50.471Z,29.73
2019-01-31T21:33:58.822Z,26.90
2019-01-31T21:39:11.766Z,28.03
2019-01-31T21:44:21.282Z,31.73
2019-01-31T21:50:33.608Z,31.03
2019-01-31T21:55:49.094Z,28.47
2019-01-31T22:01:00.170Z,31.57
2019-01-31T22:06:29.970Z,28.13
2019-01-31T22:11:41.167Z,32.57
2019-01-31T22:16:51.975Z,25.40
2019-01-31T22:21:58.809Z,27.50
2019-01-31T22:27:12.552Z,27.65
2019-01-31T22:32:20.599Z,26.63
2019-01-31T22:37:30.097Z,27.43
2019-01-31T22:42:38.336Z,24.83
2019-01-31T22:47:45.237Z,23.90
2019-01-31T22:52:57.940Z,22.23
2019-01-31T22:58:07.115Z,21.27
2019-01-31T23:03:20.678Z,23.18
2019-01-31T23:08:34.022Z,21.23
2019-01-31T23:13:44.884Z,22.63
2019-01-31T23:18:52.682Z,21.00
2019-01-31T23:24:07.974Z,21.47
2019-01-31T23:29:15.271Z,22.32
2019-01-31T23:34:25.264Z,21.47
2019-01-31T23:39:36.466Z,18.37
2019-01-31T23:44:46.954Z,22.47
2019-01-31T23:49:55.877Z,22.27
2019-01-31T23:55:06.705Z,19.33
